sensor_id;sensor_type;location;lat;lon;timestamp;temperature;humidity
22676;DHT22;12521;43.310;21.876;2023-08-30T00:04:29;21.9;96.0
22676;DHT22;12521;43.310;21.876;2023-08-30T00:09:06;22.0;96.0
22676;DHT22;12521;43.310;21.876;2023-08-30T00:13:42;22.0;96.0
22676;DHT22;12521;43.310;21.876;2023-08-30T00:18:18;22.0;96.0
22676;DHT22;12521;43.310;21.876;2023-08-30T00:22:57;22.0;96.0
22676;DHT22;12521;43.310;21.876;2023-08-30T00:27:33;21.9;96.0
22676;DHT22;12521;43.310;21.876;2023-08-30T00:32:10;21.9;96.0
22676;DHT22;12521;43.310;21.876;2023-08-30T00:36:47;21.8;96.0
22676;DHT22;12521;43.310;21.876;2023-08-30T00:41:24;21.8;96.0
22676;DHT22;12521;43.310;21.876;2023-08-30T00:46:01;21.8;96.0
22676;DHT22;12521;43.310;21.876;2023-08-30T00:50:41;21.8;96.0
22676;DHT22;12521;43.310;21.876;2023-08-30T00:55:19;21.8;96.0
22676;DHT22;12521;43.310;21.876;2023-08-30T00:59:57;21.7;96.0
22676;DHT22;12521;43.310;21.876;2023-08-30T01:04:35;21.7;96.0
22676;DHT22;12521;43.310;21.876;2023-08-30T01:09:12;21.6;96.0
22676;DHT22;12521;43.310;21.876;2023-08-30T01:14:06;21.6;96.0
22676;DHT22;12521;43.310;21.876;2023-08-30T01:18:50;21.6;96.0
22676;DHT22;12521;43.310;21.876;2023-08-30T01:23:57;21.6;96.0
22676;DHT22;12521;43.310;21.876;2023-08-30T01:28:39;21.6;96.0
22676;DHT22;12521;43.310;21.876;2023-08-30T01:33:19;21.6;96.0
22676;DHT22;12521;43.310;21.876;2023-08-30T01:37:57;21.5;96.0
22676;DHT22;12521;43.310;21.876;2023-08-30T01:42:41;21.5;96.0
22676;DHT22;12521;43.310;21.876;2023-08-30T01:47:28;21.4;96.0
22676;DHT22;12521;43.310;21.876;2023-08-30T01:52:11;21.4;96.0
22676;DHT22;12521;43.310;21.876;2023-08-30T01:56:51;21.3;96.0
22676;DHT22;12521;43.310;21.876;2023-08-30T02:01:28;21.3;96.0
22676;DHT22;12521;43.310;21.876;2023-08-30T02:06:26;21.3;96.0
22676;DHT22;12521;43.310;21.876;2023-08-30T02:11:32;21.0;96.0
22676;DHT22;12521;43.310;21.876;2023-08-30T02:16:18;21.0;96.0
22676;DHT22;12521;43.310;21.876;2023-08-30T02:20:57;20.7;96.0
22676;DHT22;12521;43.310;21.876;2023-08-30T02:25:34;20.7;96.0
22676;DHT22;12521;43.310;21.876;2023-08-30T02:30:11;20.6;96.0
22676;DHT22;12521;43.310;21.876;2023-08-30T02:34:53;20.6;96.0
22676;DHT22;12521;43.310;21.876;2023-08-30T02:39:30;20.6;96.0
22676;DHT22;12521;43.310;21.876;2023-08-30T02:44:11;20.6;96.0
22676;DHT22;12521;43.310;21.876;2023-08-30T02:48:47;20.6;96.0
22676;DHT22;12521;43.310;21.876;2023-08-30T02:53:24;20.6;96.0
22676;DHT22;12521;43.310;21.876;2023-08-30T02:58:01;20.7;96.0
22676;DHT22;12521;43.310;21.876;2023-08-30T03:02:38;20.7;96.0
22676;DHT22;12521;43.310;21.876;2023-08-30T03:07:15;20.6;96.0
22676;DHT22;12521;43.310;21.876;2023-08-30T03:11:52;20.6;96.0
22676;DHT22;12521;43.310;21.876;2023-08-30T03:16:28;20.6;96.0
22676;DHT22;12521;43.310;21.876;2023-08-30T03:21:05;20.6;96.0
22676;DHT22;12521;43.310;21.876;2023-08-30T03:25:43;20.6;96.0
22676;DHT22;12521;43.310;21.876;2023-08-30T03:30:20;20.6;96.0
22676;DHT22;12521;43.310;21.876;2023-08-30T03:34:57;20.6;96.0
22676;DHT22;12521;43.310;21.876;2023-08-30T03:39:34;20.6;96.0
22676;DHT22;12521;43.310;21.876;2023-08-30T03:44:11;20.6;96.0
22676;DHT22;12521;43.310;21.876;2023-08-30T03:48:48;20.6;96.0
22676;DHT22;12521;43.310;21.876;2023-08-30T03:53:25;20.6;96.0
22676;DHT22;12521;43.310;21.876;2023-08-30T03:58:03;20.5;96.0
22676;DHT22;12521;43.310;21.876;2023-08-30T04:02:40;20.5;96.0
22676;DHT22;12521;43.310;21.876;2023-08-30T04:07:16;20.4;96.0
22676;DHT22;12521;43.310;21.876;2023-08-30T04:11:52;20.4;96.0
22676;DHT22;12521;43.310;21.876;2023-08-30T04:16:30;20.4;96.0
22676;DHT22;12521;43.310;21.876;2023-08-30T04:21:06;20.2;96.0
22676;DHT22;12521;43.310;21.876;2023-08-30T04:25:45;20.2;96.0
22676;DHT22;12521;43.310;21.876;2023-08-30T04:30:23;20.0;96.0
22676;DHT22;12521;43.310;21.876;2023-08-30T04:34:59;20.0;96.0
22676;DHT22;12521;43.310;21.876;2023-08-30T04:39:36;19.9;96.0
22676;DHT22;12521;43.310;21.876;2023-08-30T04:44:13;19.9;96.0
22676;DHT22;12521;43.310;21.876;2023-08-30T04:48:49;20.0;96.0
22676;DHT22;12521;43.310;21.876;2023-08-30T04:53:26;20.0;96.0
22676;DHT22;12521;43.310;21.876;2023-08-30T04:58:03;20.0;96.0
22676;DHT22;12521;43.310;21.876;2023-08-30T05:02:39;20.0;96.0
22676;DHT22;12521;43.310;21.876;2023-08-30T05:07:16;20.0;96.0
22676;DHT22;12521;43.310;21.876;2023-08-30T05:11:53;20.0;96.0
22676;DHT22;12521;43.310;21.876;2023-08-30T05:16:30;20.0;96.0
22676;DHT22;12521;43.310;21.876;2023-08-30T05:21:06;20.0;96.0
22676;DHT22;12521;43.310;21.876;2023-08-30T05:25:42;20.0;96.0
22676;DHT22;12521;43.310;21.876;2023-08-30T05:30:19;20.1;96.0
22676;DHT22;12521;43.310;21.876;2023-08-30T05:34:55;20.1;96.0
22676;DHT22;12521;43.310;21.876;2023-08-30T05:39:32;20.2;96.0
22676;DHT22;12521;43.310;21.876;2023-08-30T05:44:10;20.2;96.0
22676;DHT22;12521;43.310;21.876;2023-08-30T05:48:47;20.4;96.0
22676;DHT22;12521;43.310;21.876;2023-08-30T05:53:24;20.4;96.0
22676;DHT22;12521;43.310;21.876;2023-08-30T05:58:01;20.5;96.0
22676;DHT22;12521;43.310;21.876;2023-08-30T06:02:37;20.5;96.0
22676;DHT22;12521;43.310;21.876;2023-08-30T06:07:14;20.8;96.0
22676;DHT22;12521;43.310;21.876;2023-08-30T06:11:51;20.8;96.0
22676;DHT22;12521;43.310;21.876;2023-08-30T06:16:27;20.8;96.0
22676;DHT22;12521;43.310;21.876;2023-08-30T06:21:04;21.1;96.0
22676;DHT22;12521;43.310;21.876;2023-08-30T06:25:41;21.1;96.0
22676;DHT22;12521;43.310;21.876;2023-08-30T06:30:18;21.4;96.0
22676;DHT22;12521;43.310;21.876;2023-08-30T06:34:54;21.4;96.0
22676;DHT22;12521;43.310;21.876;2023-08-30T06:39:36;21.6;96.0
22676;DHT22;12521;43.310;21.876;2023-08-30T06:44:12;21.6;96.0
22676;DHT22;12521;43.310;21.876;2023-08-30T06:48:48;22.0;96.0
22676;DHT22;12521;43.310;21.876;2023-08-30T06:53:27;22.0;96.0
22676;DHT22;12521;43.310;21.876;2023-08-30T06:58:05;22.5;96.0
22676;DHT22;12521;43.310;21.876;2023-08-30T07:02:42;22.5;96.0
22676;DHT22;12521;43.310;21.876;2023-08-30T07:07:18;22.8;96.0
22676;DHT22;12521;43.310;21.876;2023-08-30T07:11:55;22.8;96.0
22676;DHT22;12521;43.310;21.876;2023-08-30T07:16:32;22.8;96.0
22676;DHT22;12521;43.310;21.876;2023-08-30T07:21:09;23.0;96.0
22676;DHT22;12521;43.310;21.876;2023-08-30T07:25:45;23.0;96.0
22676;DHT22;12521;43.310;21.876;2023-08-30T07:30:22;23.3;96.0
22676;DHT22;12521;43.310;21.876;2023-08-30T07:34:59;23.3;96.0
22676;DHT22;12521;43.310;21.876;2023-08-30T07:39:36;23.6;96.0
22676;DHT22;12521;43.310;21.876;2023-08-30T07:44:12;23.6;96.0
22676;DHT22;12521;43.310;21.876;2023-08-30T07:48:49;23.8;96.0
22676;DHT22;12521;43.310;21.876;2023-08-30T07:53:25;23.8;96.0
22676;DHT22;12521;43.310;21.876;2023-08-30T07:58:02;24.0;96.0
22676;DHT22;12521;43.310;21.876;2023-08-30T08:02:40;24.0;96.0
22676;DHT22;12521;43.310;21.876;2023-08-30T08:07:17;24.4;96.0
22676;DHT22;12521;43.310;21.876;2023-08-30T08:11:55;24.4;96.0
22676;DHT22;12521;43.310;21.876;2023-08-30T08:16:31;24.4;96.0
22676;DHT22;12521;43.310;21.876;2023-08-30T08:21:08;24.8;96.0
22676;DHT22;12521;43.310;21.876;2023-08-30T08:25:44;24.8;96.0
22676;DHT22;12521;43.310;21.876;2023-08-30T08:30:21;25.2;96.0
22676;DHT22;12521;43.310;21.876;2023-08-30T08:34:58;25.2;96.0
22676;DHT22;12521;43.310;21.876;2023-08-30T08:39:35;25.5;96.0
22676;DHT22;12521;43.310;21.876;2023-08-30T08:44:13;25.5;96.0
22676;DHT22;12521;43.310;21.876;2023-08-30T08:48:57;25.8;96.0
22676;DHT22;12521;43.310;21.876;2023-08-30T08:53:44;25.8;96.0
22676;DHT22;12521;43.310;21.876;2023-08-30T08:58:21;26.2;96.0
22676;DHT22;12521;43.310;21.876;2023-08-30T09:02:59;26.2;96.0
22676;DHT22;12521;43.310;21.876;2023-08-30T09:07:39;26.6;95.0
22676;DHT22;12521;43.310;21.876;2023-08-30T09:12:17;26.6;95.0
22676;DHT22;12521;43.310;21.876;2023-08-30T09:16:57;27.1;94.0
22676;DHT22;12521;43.310;21.876;2023-08-30T09:21:35;27.1;94.0
22676;DHT22;12521;43.310;21.876;2023-08-30T09:26:12;27.1;94.0
22676;DHT22;12521;43.310;21.876;2023-08-30T09:30:50;27.4;93.0
22676;DHT22;12521;43.310;21.876;2023-08-30T09:35:27;27.4;93.0
22676;DHT22;12521;43.310;21.876;2023-08-30T09:40:08;27.8;93.0
22676;DHT22;12521;43.310;21.876;2023-08-30T09:44:45;27.8;93.0
22676;DHT22;12521;43.310;21.876;2023-08-30T09:49:26;28.2;90.0
22676;DHT22;12521;43.310;21.876;2023-08-30T09:54:13;28.2;90.0
22676;DHT22;12521;43.310;21.876;2023-08-30T09:58:58;28.6;88.0
22676;DHT22;12521;43.310;21.876;2023-08-30T10:03:42;28.6;88.0
22676;DHT22;12521;43.310;21.876;2023-08-30T10:08:23;28.6;86.0
22676;DHT22;12521;43.310;21.876;2023-08-30T10:13:06;28.6;86.0
22676;DHT22;12521;43.310;21.876;2023-08-30T10:17:53;28.6;85.0
22676;DHT22;12521;43.310;21.876;2023-08-30T10:22:42;28.6;85.0
22676;DHT22;12521;43.310;21.876;2023-08-30T10:27:28;28.3;85.0
22676;DHT22;12521;43.310;21.876;2023-08-30T10:32:07;28.3;85.0
22676;DHT22;12521;43.310;21.876;2023-08-30T10:36:56;28.3;85.0
22676;DHT22;12521;43.310;21.876;2023-08-30T10:41:32;28.0;86.0
22676;DHT22;12521;43.310;21.876;2023-08-30T10:46:08;28.0;86.0
22676;DHT22;12521;43.310;21.876;2023-08-30T10:50:44;27.9;86.0
22676;DHT22;12521;43.310;21.876;2023-08-30T10:55:24;27.9;86.0
22676;DHT22;12521;43.310;21.876;2023-08-30T11:00:11;27.8;87.0
22676;DHT22;12521;43.310;21.876;2023-08-30T11:04:57;27.8;87.0
22676;DHT22;12521;43.310;21.876;2023-08-30T11:09:40;27.9;87.0
22676;DHT22;12521;43.310;21.876;2023-08-30T11:14:19;27.9;87.0
22676;DHT22;12521;43.310;21.876;2023-08-30T11:18:56;28.0;87.0
22676;DHT22;12521;43.310;21.876;2023-08-30T11:23:33;28.0;87.0
22676;DHT22;12521;43.310;21.876;2023-08-30T11:28:10;28.0;86.0
22676;DHT22;12521;43.310;21.876;2023-08-30T11:32:47;28.0;86.0
22676;DHT22;12521;43.310;21.876;2023-08-30T11:37:27;28.0;86.0
22676;DHT22;12521;43.310;21.876;2023-08-30T11:42:06;28.0;86.0
22676;DHT22;12521;43.310;21.876;2023-08-30T11:46:44;28.0;86.0
22676;DHT22;12521;43.310;21.876;2023-08-30T11:51:21;27.8;86.0
22676;DHT22;12521;43.310;21.876;2023-08-30T11:55:59;27.8;86.0
22676;DHT22;12521;43.310;21.876;2023-08-30T12:00:35;27.6;85.0
22676;DHT22;12521;43.310;21.876;2023-08-30T12:05:14;27.6;85.0
22676;DHT22;12521;43.310;21.876;2023-08-30T12:09:52;27.9;86.0
22676;DHT22;12521;43.310;21.876;2023-08-30T12:14:40;27.9;86.0
22676;DHT22;12521;43.310;21.876;2023-08-30T12:19:16;28.2;86.0
22676;DHT22;12521;43.310;21.876;2023-08-30T12:24:00;28.2;86.0
22676;DHT22;12521;43.310;21.876;2023-08-30T12:28:41;28.8;84.0
22676;DHT22;12521;43.310;21.876;2023-08-30T12:33:19;28.8;84.0
22676;DHT22;12521;43.310;21.876;2023-08-30T12:37:56;29.5;82.0
22676;DHT22;12521;43.310;21.876;2023-08-30T12:42:34;29.5;82.0
22676;DHT22;12521;43.310;21.876;2023-08-30T12:47:10;29.4;80.0
22676;DHT22;12521;43.310;21.876;2023-08-30T12:51:47;29.4;80.0
22676;DHT22;12521;43.310;21.876;2023-08-30T12:56:23;29.4;80.0
22676;DHT22;12521;43.310;21.876;2023-08-30T13:01:00;29.4;79.0
22676;DHT22;12521;43.310;21.876;2023-08-30T13:05:37;29.4;79.0
22676;DHT22;12521;43.310;21.876;2023-08-30T13:10:14;29.0;79.0
22676;DHT22;12521;43.310;21.876;2023-08-30T13:14:51;29.0;79.0
22676;DHT22;12521;43.310;21.876;2023-08-30T13:19:27;28.7;80.0
22676;DHT22;12521;43.310;21.876;2023-08-30T13:24:06;28.7;80.0
22676;DHT22;12521;43.310;21.876;2023-08-30T13:28:42;28.6;80.0
22676;DHT22;12521;43.310;21.876;2023-08-30T13:33:18;28.6;80.0
22676;DHT22;12521;43.310;21.876;2023-08-30T13:37:54;28.5;80.0
22676;DHT22;12521;43.310;21.876;2023-08-30T13:42:31;28.5;80.0
22676;DHT22;12521;43.310;21.876;2023-08-30T13:47:08;28.4;80.0
22676;DHT22;12521;43.310;21.876;2023-08-30T13:51:45;28.4;80.0
22676;DHT22;12521;43.310;21.876;2023-08-30T13:56:24;28.4;80.0
22676;DHT22;12521;43.310;21.876;2023-08-30T14:01:01;28.2;81.0
22676;DHT22;12521;43.310;21.876;2023-08-30T14:05:37;28.2;81.0
22676;DHT22;12521;43.310;21.876;2023-08-30T14:10:14;28.2;81.0
22676;DHT22;12521;43.310;21.876;2023-08-30T14:14:51;28.2;81.0
22676;DHT22;12521;43.310;21.876;2023-08-30T14:19:28;28.2;81.0
22676;DHT22;12521;43.310;21.876;2023-08-30T14:24:06;28.2;81.0
22676;DHT22;12521;43.310;21.876;2023-08-30T14:28:43;28.2;80.0
22676;DHT22;12521;43.310;21.876;2023-08-30T14:33:20;28.2;80.0
22676;DHT22;12521;43.310;21.876;2023-08-30T14:37:57;28.1;80.0
22676;DHT22;12521;43.310;21.876;2023-08-30T14:42:34;28.1;80.0
22676;DHT22;12521;43.310;21.876;2023-08-30T14:47:10;28.2;80.0
22676;DHT22;12521;43.310;21.876;2023-08-30T14:51:46;28.2;80.0
22676;DHT22;12521;43.310;21.876;2023-08-30T14:56:23;28.2;80.0
22676;DHT22;12521;43.310;21.876;2023-08-30T15:00:59;28.3;80.0
22676;DHT22;12521;43.310;21.876;2023-08-30T15:05:36;28.3;80.0
22676;DHT22;12521;43.310;21.876;2023-08-30T15:10:12;28.6;80.0
22676;DHT22;12521;43.310;21.876;2023-08-30T15:14:49;28.6;80.0
22676;DHT22;12521;43.310;21.876;2023-08-30T15:19:26;29.0;80.0
22676;DHT22;12521;43.310;21.876;2023-08-30T15:24:04;29.0;80.0
22676;DHT22;12521;43.310;21.876;2023-08-30T15:28:42;29.2;79.0
22676;DHT22;12521;43.310;21.876;2023-08-30T15:33:19;29.2;79.0
22676;DHT22;12521;43.310;21.876;2023-08-30T15:37:55;29.5;79.0
22676;DHT22;12521;43.310;21.876;2023-08-30T15:42:33;29.5;79.0
22676;DHT22;12521;43.310;21.876;2023-08-30T15:47:11;29.5;79.0
22676;DHT22;12521;43.310;21.876;2023-08-30T15:51:47;29.4;79.0
22676;DHT22;12521;43.310;21.876;2023-08-30T15:56:24;29.4;79.0
22676;DHT22;12521;43.310;21.876;2023-08-30T16:01:04;29.4;79.0
22676;DHT22;12521;43.310;21.876;2023-08-30T16:05:42;29.4;79.0
22676;DHT22;12521;43.310;21.876;2023-08-30T16:10:19;28.8;80.0
22676;DHT22;12521;43.310;21.876;2023-08-30T16:14:55;28.8;80.0
22676;DHT22;12521;43.310;21.876;2023-08-30T16:19:31;28.1;81.0
22676;DHT22;12521;43.310;21.876;2023-08-30T16:24:08;28.1;81.0
22676;DHT22;12521;43.310;21.876;2023-08-30T16:28:45;27.7;82.0
22676;DHT22;12521;43.310;21.876;2023-08-30T16:33:21;27.7;82.0
22676;DHT22;12521;43.310;21.876;2023-08-30T16:37:59;27.3;84.0
22676;DHT22;12521;43.310;21.876;2023-08-30T16:42:35;27.3;84.0
22676;DHT22;12521;43.310;21.876;2023-08-30T16:47:12;27.3;84.0
22676;DHT22;12521;43.310;21.876;2023-08-30T16:51:49;27.0;85.0
22676;DHT22;12521;43.310;21.876;2023-08-30T16:56:25;27.0;85.0
22676;DHT22;12521;43.310;21.876;2023-08-30T17:01:10;26.8;86.0
22676;DHT22;12521;43.310;21.876;2023-08-30T17:05:47;26.8;86.0
22676;DHT22;12521;43.310;21.876;2023-08-30T17:10:23;26.4;88.0
22676;DHT22;12521;43.310;21.876;2023-08-30T17:15:00;26.4;88.0
22676;DHT22;12521;43.310;21.876;2023-08-30T17:19:36;26.0;90.0
22676;DHT22;12521;43.310;21.876;2023-08-30T17:24:13;26.0;90.0
22676;DHT22;12521;43.310;21.876;2023-08-30T17:28:49;25.7;92.0
22676;DHT22;12521;43.310;21.876;2023-08-30T17:33:26;25.7;92.0
22676;DHT22;12521;43.310;21.876;2023-08-30T17:38:04;25.4;94.0
22676;DHT22;12521;43.310;21.876;2023-08-30T17:42:40;25.4;94.0
22676;DHT22;12521;43.310;21.876;2023-08-30T17:47:17;25.4;94.0
22676;DHT22;12521;43.310;21.876;2023-08-30T17:51:53;25.2;94.0
22676;DHT22;12521;43.310;21.876;2023-08-30T17:56:30;25.2;94.0
22676;DHT22;12521;43.310;21.876;2023-08-30T18:01:08;24.9;95.0
22676;DHT22;12521;43.310;21.876;2023-08-30T18:05:45;24.9;95.0
22676;DHT22;12521;43.310;21.876;2023-08-30T18:10:23;24.8;96.0
22676;DHT22;12521;43.310;21.876;2023-08-30T18:15:00;24.8;96.0
22676;DHT22;12521;43.310;21.876;2023-08-30T18:19:37;24.7;96.0
22676;DHT22;12521;43.310;21.876;2023-08-30T18:24:19;24.7;96.0
22676;DHT22;12521;43.310;21.876;2023-08-30T18:28:56;24.4;96.0
22676;DHT22;12521;43.310;21.876;2023-08-30T18:33:33;24.4;96.0
22676;DHT22;12521;43.310;21.876;2023-08-30T18:38:09;24.1;96.0
22676;DHT22;12521;43.310;21.876;2023-08-30T18:42:45;24.1;96.0
22676;DHT22;12521;43.310;21.876;2023-08-30T18:47:22;24.1;96.0
22676;DHT22;12521;43.310;21.876;2023-08-30T18:51:58;24.0;96.0
22676;DHT22;12521;43.310;21.876;2023-08-30T18:56:34;24.0;96.0
22676;DHT22;12521;43.310;21.876;2023-08-30T19:01:13;23.8;96.0
22676;DHT22;12521;43.310;21.876;2023-08-30T19:05:50;23.8;96.0
22676;DHT22;12521;43.310;21.876;2023-08-30T19:10:26;23.7;96.0
22676;DHT22;12521;43.310;21.876;2023-08-30T19:15:06;23.7;96.0
22676;DHT22;12521;43.310;21.876;2023-08-30T19:19:45;23.6;96.0
22676;DHT22;12521;43.310;21.876;2023-08-30T19:24:22;23.6;96.0
22676;DHT22;12521;43.310;21.876;2023-08-30T19:28:58;23.6;96.0
22676;DHT22;12521;43.310;21.876;2023-08-30T19:33:35;23.6;96.0
22676;DHT22;12521;43.310;21.876;2023-08-30T19:38:12;23.6;96.0
22676;DHT22;12521;43.310;21.876;2023-08-30T19:42:49;23.6;96.0
22676;DHT22;12521;43.310;21.876;2023-08-30T19:47:27;23.4;96.0
22676;DHT22;12521;43.310;21.876;2023-08-30T19:52:05;23.4;96.0
22676;DHT22;12521;43.310;21.876;2023-08-30T19:56:41;23.4;96.0
22676;DHT22;12521;43.310;21.876;2023-08-30T20:01:18;23.1;96.0
22676;DHT22;12521;43.310;21.876;2023-08-30T20:05:54;23.1;96.0
22676;DHT22;12521;43.310;21.876;2023-08-30T20:10:30;23.0;96.0
22676;DHT22;12521;43.310;21.876;2023-08-30T20:15:09;23.0;96.0
22676;DHT22;12521;43.310;21.876;2023-08-30T20:19:46;23.0;96.0
22676;DHT22;12521;43.310;21.876;2023-08-30T20:24:23;23.0;96.0
22676;DHT22;12521;43.310;21.876;2023-08-30T20:28:59;23.0;96.0
22676;DHT22;12521;43.310;21.876;2023-08-30T20:33:36;23.0;96.0
22676;DHT22;12521;43.310;21.876;2023-08-30T20:38:12;22.9;96.0
22676;DHT22;12521;43.310;21.876;2023-08-30T20:42:49;22.9;96.0
22676;DHT22;12521;43.310;21.876;2023-08-30T20:47:25;22.9;96.0
22676;DHT22;12521;43.310;21.876;2023-08-30T20:52:03;22.8;96.0
22676;DHT22;12521;43.310;21.876;2023-08-30T20:56:41;22.8;96.0
22676;DHT22;12521;43.310;21.876;2023-08-30T21:01:17;22.7;96.0
22676;DHT22;12521;43.310;21.876;2023-08-30T21:05:54;22.7;96.0
22676;DHT22;12521;43.310;21.876;2023-08-30T21:10:30;22.6;96.0
22676;DHT22;12521;43.310;21.876;2023-08-30T21:15:09;22.6;96.0
22676;DHT22;12521;43.310;21.876;2023-08-30T21:19:45;22.6;96.0
22676;DHT22;12521;43.310;21.876;2023-08-30T21:24:22;22.6;96.0
22676;DHT22;12521;43.310;21.876;2023-08-30T21:28:58;22.4;96.0
22676;DHT22;12521;43.310;21.876;2023-08-30T21:33:34;22.4;96.0
22676;DHT22;12521;43.310;21.876;2023-08-30T21:38:15;22.2;96.0
22676;DHT22;12521;43.310;21.876;2023-08-30T21:42:51;22.2;96.0
22676;DHT22;12521;43.310;21.876;2023-08-30T21:47:28;22.2;96.0
22676;DHT22;12521;43.310;21.876;2023-08-30T21:52:05;22.0;96.0
22676;DHT22;12521;43.310;21.876;2023-08-30T21:56:42;22.0;96.0
22676;DHT22;12521;43.310;21.876;2023-08-30T22:01:19;21.7;96.0
22676;DHT22;12521;43.310;21.876;2023-08-30T22:06:01;21.7;96.0
22676;DHT22;12521;43.310;21.876;2023-08-30T22:10:38;21.6;96.0
22676;DHT22;12521;43.310;21.876;2023-08-30T22:15:15;21.6;96.0
22676;DHT22;12521;43.310;21.876;2023-08-30T22:19:53;21.6;96.0
22676;DHT22;12521;43.310;21.876;2023-08-30T22:24:29;21.6;96.0
22676;DHT22;12521;43.310;21.876;2023-08-30T22:29:07;21.5;96.0
22676;DHT22;12521;43.310;21.876;2023-08-30T22:33:44;21.5;96.0
22676;DHT22;12521;43.310;21.876;2023-08-30T22:38:20;21.4;96.0
22676;DHT22;12521;43.310;21.876;2023-08-30T22:42:56;21.4;96.0
22676;DHT22;12521;43.310;21.876;2023-08-30T22:47:34;21.4;96.0
22676;DHT22;12521;43.310;21.876;2023-08-30T22:52:11;21.4;96.0
22676;DHT22;12521;43.310;21.876;2023-08-30T22:56:48;21.4;96.0
22676;DHT22;12521;43.310;21.876;2023-08-30T23:01:25;21.4;96.0
22676;DHT22;12521;43.310;21.876;2023-08-30T23:06:03;21.4;96.0
22676;DHT22;12521;43.310;21.876;2023-08-30T23:10:42;21.2;96.0
22676;DHT22;12521;43.310;21.876;2023-08-30T23:15:19;21.2;96.0
22676;DHT22;12521;43.310;21.876;2023-08-30T23:19:57;21.0;96.0
22676;DHT22;12521;43.310;21.876;2023-08-30T23:24:34;21.0;96.0
22676;DHT22;12521;43.310;21.876;2023-08-30T23:29:10;21.0;96.0
22676;DHT22;12521;43.310;21.876;2023-08-30T23:33:47;21.0;96.0
22676;DHT22;12521;43.310;21.876;2023-08-30T23:38:24;21.0;96.0
22676;DHT22;12521;43.310;21.876;2023-08-30T23:43:01;21.0;96.0
22676;DHT22;12521;43.310;21.876;2023-08-30T23:47:37;21.0;96.0
22676;DHT22;12521;43.310;21.876;2023-08-30T23:52:14;21.0;96.0
22676;DHT22;12521;43.310;21.876;2023-08-30T23:56:50;21.0;96.0
